China, Michigan
Current Conditions -  °F | °C
As of 6:56 PM on Saturday 25 Oct 2014 (Local Time) from KPHN Reporting Station
Clear Clear  
Wind Chill: 63°   Ceiling: Unl
Heat Index: 63°   Visibility: 10mi
Dew Point: 30°   Wind: 14mph
Humidity: 30%   Direction: 290°WNW
Pressure: 29.7"   Gusts: 21mph
Location:  42.7808°N, 82.6288°W
Report Text: KPHN 252256Z AUTO 29012G18KT 10SM CLR 17/M01 A2970 RMK AO2
Loading
Personal Weather Stations






























Interactive Weather Map
Tropical Storm Tracking
New forecast layout! Learn more

10-Day Weather Forecast

Advertisements
Track Severe Weather on mobile